sensor_id;sensor_type;location;lat;lon;timestamp;temperature;humidity
62573;DHT22;48626;51.678;5.806;2022-08-20T00:00:21;21.60;94.20
62573;DHT22;48626;51.678;5.806;2022-08-20T00:02:53;21.60;94.10
62573;DHT22;48626;51.678;5.806;2022-08-20T00:05:26;21.50;94.30
62573;DHT22;48626;51.678;5.806;2022-08-20T00:07:52;21.50;94.20
62573;DHT22;48626;51.678;5.806;2022-08-20T00:10:18;21.50;94.20
62573;DHT22;48626;51.678;5.806;2022-08-20T00:12:46;21.50;94.20
62573;DHT22;48626;51.678;5.806;2022-08-20T00:15:14;21.50;94.20
62573;DHT22;48626;51.678;5.806;2022-08-20T00:17:40;21.50;94.30
62573;DHT22;48626;51.678;5.806;2022-08-20T00:20:09;21.50;94.30
62573;DHT22;48626;51.678;5.806;2022-08-20T00:22:35;21.50;94.30
62573;DHT22;48626;51.678;5.806;2022-08-20T00:25:03;21.40;94.30
62573;DHT22;48626;51.678;5.806;2022-08-20T00:27:30;21.50;94.30
62573;DHT22;48626;51.678;5.806;2022-08-20T00:29:56;21.40;94.30
62573;DHT22;48626;51.678;5.806;2022-08-20T00:32:22;21.40;94.30
62573;DHT22;48626;51.678;5.806;2022-08-20T00:34:47;21.40;94.30
62573;DHT22;48626;51.678;5.806;2022-08-20T00:37:13;21.40;94.30
62573;DHT22;48626;51.678;5.806;2022-08-20T00:39:39;21.30;94.70
62573;DHT22;48626;51.678;5.806;2022-08-20T00:42:04;21.30;94.30
62573;DHT22;48626;51.678;5.806;2022-08-20T00:44:30;21.30;94.40
62573;DHT22;48626;51.678;5.806;2022-08-20T00:46:56;21.20;94.30
62573;DHT22;48626;51.678;5.806;2022-08-20T00:49:28;21.20;94.30
62573;DHT22;48626;51.678;5.806;2022-08-20T00:57:11;21.10;94.20
62573;DHT22;48626;51.678;5.806;2022-08-20T00:59:39;21.10;94.30
62573;DHT22;48626;51.678;5.806;2022-08-20T01:02:09;21.10;94.40
62573;DHT22;48626;51.678;5.806;2022-08-20T01:04:37;21.10;94.50
62573;DHT22;48626;51.678;5.806;2022-08-20T01:07:04;21.10;94.50
62573;DHT22;48626;51.678;5.806;2022-08-20T01:09:33;21.10;94.50
62573;DHT22;48626;51.678;5.806;2022-08-20T01:11:59;21.00;94.40
62573;DHT22;48626;51.678;5.806;2022-08-20T01:14:25;20.90;94.60
62573;DHT22;48626;51.678;5.806;2022-08-20T01:17:03;20.90;94.80
62573;DHT22;48626;51.678;5.806;2022-08-20T01:19:46;20.90;94.90
62573;DHT22;48626;51.678;5.806;2022-08-20T01:22:16;20.90;94.90
62573;DHT22;48626;51.678;5.806;2022-08-20T01:25:09;20.90;94.70
62573;DHT22;48626;51.678;5.806;2022-08-20T01:27:37;20.70;95.00
62573;DHT22;48626;51.678;5.806;2022-08-20T01:30:04;20.70;95.20
62573;DHT22;48626;51.678;5.806;2022-08-20T01:32:30;20.80;95.30
62573;DHT22;48626;51.678;5.806;2022-08-20T01:34:56;20.80;95.40
62573;DHT22;48626;51.678;5.806;2022-08-20T01:37:21;20.80;95.40
62573;DHT22;48626;51.678;5.806;2022-08-20T01:39:47;20.90;95.50
62573;DHT22;48626;51.678;5.806;2022-08-20T01:42:26;20.90;95.80
62573;DHT22;48626;51.678;5.806;2022-08-20T01:44:54;20.90;95.40
62573;DHT22;48626;51.678;5.806;2022-08-20T01:47:26;20.90;95.30
62573;DHT22;48626;51.678;5.806;2022-08-20T01:49:58;21.00;95.30
62573;DHT22;48626;51.678;5.806;2022-08-20T01:52:30;20.90;95.20
62573;DHT22;48626;51.678;5.806;2022-08-20T01:54:57;20.90;95.10
62573;DHT22;48626;51.678;5.806;2022-08-20T01:57:24;20.90;95.50
62573;DHT22;48626;51.678;5.806;2022-08-20T01:59:54;20.90;95.10
62573;DHT22;48626;51.678;5.806;2022-08-20T02:02:20;20.90;95.20
62573;DHT22;48626;51.678;5.806;2022-08-20T02:04:46;20.90;95.20
62573;DHT22;48626;51.678;5.806;2022-08-20T02:07:16;21.00;95.20
62573;DHT22;48626;51.678;5.806;2022-08-20T02:09:44;21.00;95.20
62573;DHT22;48626;51.678;5.806;2022-08-20T02:12:10;21.00;95.10
62573;DHT22;48626;51.678;5.806;2022-08-20T02:14:47;21.00;95.10
62573;DHT22;48626;51.678;5.806;2022-08-20T02:17:14;21.00;95.10
62573;DHT22;48626;51.678;5.806;2022-08-20T02:19:44;21.00;95.10
62573;DHT22;48626;51.678;5.806;2022-08-20T02:22:24;21.00;95.00
62573;DHT22;48626;51.678;5.806;2022-08-20T02:24:50;21.00;95.00
62573;DHT22;48626;51.678;5.806;2022-08-20T02:27:16;21.00;95.10
62573;DHT22;48626;51.678;5.806;2022-08-20T02:29:43;21.00;95.00
62573;DHT22;48626;51.678;5.806;2022-08-20T02:32:09;21.00;95.10
62573;DHT22;48626;51.678;5.806;2022-08-20T02:34:37;20.90;95.10
62573;DHT22;48626;51.678;5.806;2022-08-20T02:37:04;20.90;95.10
62573;DHT22;48626;51.678;5.806;2022-08-20T02:39:30;20.90;95.10
62573;DHT22;48626;51.678;5.806;2022-08-20T02:41:56;20.90;95.20
62573;DHT22;48626;51.678;5.806;2022-08-20T02:44:22;20.90;95.20
62573;DHT22;48626;51.678;5.806;2022-08-20T02:46:48;20.90;95.20
62573;DHT22;48626;51.678;5.806;2022-08-20T02:49:15;20.90;95.10
62573;DHT22;48626;51.678;5.806;2022-08-20T02:51:42;20.90;95.10
62573;DHT22;48626;51.678;5.806;2022-08-20T02:54:08;20.90;95.20
62573;DHT22;48626;51.678;5.806;2022-08-20T02:56:34;20.90;95.20
62573;DHT22;48626;51.678;5.806;2022-08-20T02:59:00;20.90;95.30
62573;DHT22;48626;51.678;5.806;2022-08-20T03:01:25;20.90;95.30
62573;DHT22;48626;51.678;5.806;2022-08-20T03:03:52;20.90;95.30
62573;DHT22;48626;51.678;5.806;2022-08-20T03:06:21;20.90;95.30
62573;DHT22;48626;51.678;5.806;2022-08-20T03:08:48;20.90;95.30
62573;DHT22;48626;51.678;5.806;2022-08-20T03:11:15;20.90;95.30
62573;DHT22;48626;51.678;5.806;2022-08-20T03:13:40;20.90;95.20
62573;DHT22;48626;51.678;5.806;2022-08-20T03:16:07;20.80;95.30
62573;DHT22;48626;51.678;5.806;2022-08-20T03:18:39;20.80;95.30
62573;DHT22;48626;51.678;5.806;2022-08-20T03:21:06;20.90;95.40
62573;DHT22;48626;51.678;5.806;2022-08-20T03:23:32;20.80;95.40
62573;DHT22;48626;51.678;5.806;2022-08-20T03:25:58;20.80;95.40
62573;DHT22;48626;51.678;5.806;2022-08-20T03:28:24;20.80;95.40
62573;DHT22;48626;51.678;5.806;2022-08-20T03:30:51;20.80;95.40
62573;DHT22;48626;51.678;5.806;2022-08-20T03:33:18;20.80;95.50
62573;DHT22;48626;51.678;5.806;2022-08-20T03:35:47;20.80;95.50
62573;DHT22;48626;51.678;5.806;2022-08-20T03:38:15;20.80;95.50
62573;DHT22;48626;51.678;5.806;2022-08-20T03:40:41;20.80;95.70
62573;DHT22;48626;51.678;5.806;2022-08-20T03:43:08;20.80;95.90
62573;DHT22;48626;51.678;5.806;2022-08-20T03:45:34;20.80;95.80
62573;DHT22;48626;51.678;5.806;2022-08-20T03:48:02;20.80;95.70
62573;DHT22;48626;51.678;5.806;2022-08-20T03:50:30;20.80;95.80
62573;DHT22;48626;51.678;5.806;2022-08-20T03:52:57;20.80;95.80
62573;DHT22;48626;51.678;5.806;2022-08-20T03:55:24;20.80;95.80
62573;DHT22;48626;51.678;5.806;2022-08-20T03:57:56;20.70;95.80
62573;DHT22;48626;51.678;5.806;2022-08-20T04:00:38;20.70;95.80
62573;DHT22;48626;51.678;5.806;2022-08-20T04:03:05;20.70;95.80
62573;DHT22;48626;51.678;5.806;2022-08-20T04:05:34;20.70;95.90
62573;DHT22;48626;51.678;5.806;2022-08-20T04:08:03;20.60;95.90
62573;DHT22;48626;51.678;5.806;2022-08-20T04:10:30;20.60;95.80
62573;DHT22;48626;51.678;5.806;2022-08-20T04:12:56;20.60;95.80
62573;DHT22;48626;51.678;5.806;2022-08-20T04:15:22;20.60;95.90
62573;DHT22;48626;51.678;5.806;2022-08-20T04:17:49;20.50;95.90
62573;DHT22;48626;51.678;5.806;2022-08-20T04:20:19;20.50;96.10
62573;DHT22;48626;51.678;5.806;2022-08-20T04:22:48;20.40;96.10
62573;DHT22;48626;51.678;5.806;2022-08-20T04:25:14;20.40;96.20
62573;DHT22;48626;51.678;5.806;2022-08-20T04:27:40;20.30;96.50
62573;DHT22;48626;51.678;5.806;2022-08-20T04:30:09;20.30;96.60
62573;DHT22;48626;51.678;5.806;2022-08-20T04:32:39;20.30;96.70
62573;DHT22;48626;51.678;5.806;2022-08-20T04:35:08;20.30;96.50
62573;DHT22;48626;51.678;5.806;2022-08-20T04:37:36;20.30;96.70
62573;DHT22;48626;51.678;5.806;2022-08-20T04:40:06;20.20;96.70
62573;DHT22;48626;51.678;5.806;2022-08-20T04:42:52;20.30;96.70
62573;DHT22;48626;51.678;5.806;2022-08-20T04:45:18;20.20;96.70
62573;DHT22;48626;51.678;5.806;2022-08-20T04:47:43;20.20;96.90
62573;DHT22;48626;51.678;5.806;2022-08-20T04:50:12;20.20;97.00
62573;DHT22;48626;51.678;5.806;2022-08-20T04:52:38;20.30;97.00
62573;DHT22;48626;51.678;5.806;2022-08-20T04:55:05;20.30;97.00
62573;DHT22;48626;51.678;5.806;2022-08-20T04:57:31;20.40;97.10
62573;DHT22;48626;51.678;5.806;2022-08-20T04:59:58;20.40;97.00
62573;DHT22;48626;51.678;5.806;2022-08-20T05:02:24;20.40;97.00
62573;DHT22;48626;51.678;5.806;2022-08-20T05:04:50;20.40;97.00
62573;DHT22;48626;51.678;5.806;2022-08-20T05:07:16;20.40;97.00
62573;DHT22;48626;51.678;5.806;2022-08-20T05:09:45;20.40;97.00
62573;DHT22;48626;51.678;5.806;2022-08-20T05:12:11;20.40;96.90
62573;DHT22;48626;51.678;5.806;2022-08-20T05:14:40;20.40;97.30
62573;DHT22;48626;51.678;5.806;2022-08-20T05:17:06;20.40;96.80
62573;DHT22;48626;51.678;5.806;2022-08-20T05:19:34;20.40;96.90
62573;DHT22;48626;51.678;5.806;2022-08-20T05:22:03;20.40;96.90
62573;DHT22;48626;51.678;5.806;2022-08-20T05:24:28;20.40;97.00
62573;DHT22;48626;51.678;5.806;2022-08-20T05:26:54;20.40;97.00
62573;DHT22;48626;51.678;5.806;2022-08-20T05:29:21;20.40;97.00
62573;DHT22;48626;51.678;5.806;2022-08-20T05:31:48;20.50;97.00
62573;DHT22;48626;51.678;5.806;2022-08-20T05:34:14;20.50;97.00
62573;DHT22;48626;51.678;5.806;2022-08-20T05:36:49;20.50;96.90
62573;DHT22;48626;51.678;5.806;2022-08-20T05:39:16;20.50;96.90
62573;DHT22;48626;51.678;5.806;2022-08-20T05:41:42;20.60;97.00
62573;DHT22;48626;51.678;5.806;2022-08-20T05:44:09;20.70;97.20
62573;DHT22;48626;51.678;5.806;2022-08-20T05:46:38;20.70;97.30
62573;DHT22;48626;51.678;5.806;2022-08-20T05:49:06;20.80;97.40
62573;DHT22;48626;51.678;5.806;2022-08-20T05:51:32;20.80;97.10
62573;DHT22;48626;51.678;5.806;2022-08-20T05:53:57;20.90;97.20
62573;DHT22;48626;51.678;5.806;2022-08-20T05:56:23;21.00;97.20
62573;DHT22;48626;51.678;5.806;2022-08-20T05:58:49;21.00;97.10
62573;DHT22;48626;51.678;5.806;2022-08-20T06:01:14;21.00;96.90
62573;DHT22;48626;51.678;5.806;2022-08-20T06:03:40;21.10;97.20
62573;DHT22;48626;51.678;5.806;2022-08-20T06:06:24;21.10;96.70
62573;DHT22;48626;51.678;5.806;2022-08-20T06:08:49;21.10;96.70
62573;DHT22;48626;51.678;5.806;2022-08-20T06:11:15;21.10;96.70
62573;DHT22;48626;51.678;5.806;2022-08-20T06:13:41;21.10;96.70
62573;DHT22;48626;51.678;5.806;2022-08-20T06:16:06;21.10;96.80
62573;DHT22;48626;51.678;5.806;2022-08-20T06:18:32;21.20;96.80
62573;DHT22;48626;51.678;5.806;2022-08-20T06:20:58;21.10;96.70
62573;DHT22;48626;51.678;5.806;2022-08-20T06:23:23;21.10;96.70
62573;DHT22;48626;51.678;5.806;2022-08-20T06:25:49;21.10;96.70
62573;DHT22;48626;51.678;5.806;2022-08-20T06:28:16;21.20;96.70
62573;DHT22;48626;51.678;5.806;2022-08-20T06:30:41;21.10;96.50
62573;DHT22;48626;51.678;5.806;2022-08-20T06:33:07;21.00;96.40
62573;DHT22;48626;51.678;5.806;2022-08-20T06:35:33;21.00;96.50
62573;DHT22;48626;51.678;5.806;2022-08-20T06:37:59;21.00;96.30
62573;DHT22;48626;51.678;5.806;2022-08-20T06:40:27;21.00;96.40
62573;DHT22;48626;51.678;5.806;2022-08-20T06:42:55;21.00;96.30
62573;DHT22;48626;51.678;5.806;2022-08-20T06:45:27;21.00;96.30
62573;DHT22;48626;51.678;5.806;2022-08-20T06:47:56;21.00;96.20
62573;DHT22;48626;51.678;5.806;2022-08-20T06:50:26;21.00;96.40
62573;DHT22;48626;51.678;5.806;2022-08-20T06:52:52;21.10;96.50
62573;DHT22;48626;51.678;5.806;2022-08-20T06:55:18;21.20;96.50
62573;DHT22;48626;51.678;5.806;2022-08-20T06:57:44;21.30;96.40
62573;DHT22;48626;51.678;5.806;2022-08-20T07:00:16;21.30;96.20
62573;DHT22;48626;51.678;5.806;2022-08-20T07:02:43;21.40;96.20
62573;DHT22;48626;51.678;5.806;2022-08-20T07:05:09;21.40;96.30
62573;DHT22;48626;51.678;5.806;2022-08-20T07:07:36;21.40;95.80
62573;DHT22;48626;51.678;5.806;2022-08-20T07:10:07;21.30;95.40
62573;DHT22;48626;51.678;5.806;2022-08-20T07:12:33;21.20;95.60
62573;DHT22;48626;51.678;5.806;2022-08-20T07:15:08;21.20;95.70
62573;DHT22;48626;51.678;5.806;2022-08-20T07:17:35;21.20;96.00
62573;DHT22;48626;51.678;5.806;2022-08-20T07:20:05;21.30;96.00
62573;DHT22;48626;51.678;5.806;2022-08-20T07:22:31;21.30;96.10
62573;DHT22;48626;51.678;5.806;2022-08-20T07:25:00;21.40;96.10
62573;DHT22;48626;51.678;5.806;2022-08-20T07:27:26;21.50;96.00
62573;DHT22;48626;51.678;5.806;2022-08-20T07:29:52;21.50;95.60
62573;DHT22;48626;51.678;5.806;2022-08-20T07:32:36;21.60;95.40
62573;DHT22;48626;51.678;5.806;2022-08-20T07:35:08;21.60;95.20
62573;DHT22;48626;51.678;5.806;2022-08-20T07:37:39;21.60;95.40
62573;DHT22;48626;51.678;5.806;2022-08-20T07:40:07;21.60;95.20
62573;DHT22;48626;51.678;5.806;2022-08-20T07:42:35;21.70;94.80
62573;DHT22;48626;51.678;5.806;2022-08-20T07:45:04;21.70;94.70
62573;DHT22;48626;51.678;5.806;2022-08-20T07:47:30;21.70;94.70
62573;DHT22;48626;51.678;5.806;2022-08-20T07:49:58;21.80;95.00
62573;DHT22;48626;51.678;5.806;2022-08-20T07:52:24;21.80;94.60
62573;DHT22;48626;51.678;5.806;2022-08-20T07:54:50;21.70;94.60
62573;DHT22;48626;51.678;5.806;2022-08-20T07:57:15;21.70;94.60
62573;DHT22;48626;51.678;5.806;2022-08-20T07:59:42;21.70;94.70
62573;DHT22;48626;51.678;5.806;2022-08-20T08:02:08;21.90;94.90
62573;DHT22;48626;51.678;5.806;2022-08-20T08:04:33;22.10;95.00
62573;DHT22;48626;51.678;5.806;2022-08-20T08:07:01;22.30;94.70
62573;DHT22;48626;51.678;5.806;2022-08-20T08:09:27;22.30;94.30
62573;DHT22;48626;51.678;5.806;2022-08-20T08:11:53;22.30;94.00
62573;DHT22;48626;51.678;5.806;2022-08-20T08:14:24;22.20;93.70
62573;DHT22;48626;51.678;5.806;2022-08-20T08:16:56;22.20;93.20
62573;DHT22;48626;51.678;5.806;2022-08-20T08:19:24;22.20;93.60
62573;DHT22;48626;51.678;5.806;2022-08-20T08:21:51;22.30;93.80
62573;DHT22;48626;51.678;5.806;2022-08-20T08:24:17;22.30;93.80
62573;DHT22;48626;51.678;5.806;2022-08-20T08:26:43;22.30;93.40
62573;DHT22;48626;51.678;5.806;2022-08-20T08:29:09;22.20;93.20
62573;DHT22;48626;51.678;5.806;2022-08-20T08:31:35;22.30;93.00
62573;DHT22;48626;51.678;5.806;2022-08-20T08:34:01;22.40;92.90
62573;DHT22;48626;51.678;5.806;2022-08-20T08:36:26;22.70;93.00
62573;DHT22;48626;51.678;5.806;2022-08-20T08:38:52;23.10;92.90
62573;DHT22;48626;51.678;5.806;2022-08-20T08:41:22;23.30;92.10
62573;DHT22;48626;51.678;5.806;2022-08-20T08:43:52;23.50;91.40
62573;DHT22;48626;51.678;5.806;2022-08-20T08:46:22;23.30;90.20
62573;DHT22;48626;51.678;5.806;2022-08-20T08:48:50;23.30;88.80
62573;DHT22;48626;51.678;5.806;2022-08-20T08:52:23;23.20;88.90
62573;DHT22;48626;51.678;5.806;2022-08-20T08:54:22;23.30;88.30
62573;DHT22;48626;51.678;5.806;2022-08-20T08:56:49;23.60;85.90
62573;DHT22;48626;51.678;5.806;2022-08-20T08:59:15;23.70;84.80
62573;DHT22;48626;51.678;5.806;2022-08-20T09:01:46;23.80;80.90
62573;DHT22;48626;51.678;5.806;2022-08-20T09:04:16;23.70;80.40
62573;DHT22;48626;51.678;5.806;2022-08-20T09:06:42;23.50;80.20
62573;DHT22;48626;51.678;5.806;2022-08-20T09:09:21;23.20;82.40
62573;DHT22;48626;51.678;5.806;2022-08-20T09:11:53;23.10;83.10
62573;DHT22;48626;51.678;5.806;2022-08-20T09:14:19;23.20;83.40
62573;DHT22;48626;51.678;5.806;2022-08-20T09:16:46;23.40;79.20
62573;DHT22;48626;51.678;5.806;2022-08-20T09:19:11;23.60;80.00
62573;DHT22;48626;51.678;5.806;2022-08-20T09:21:37;23.70;77.70
62573;DHT22;48626;51.678;5.806;2022-08-20T09:24:03;23.70;76.50
62573;DHT22;48626;51.678;5.806;2022-08-20T09:26:29;23.60;75.10
62573;DHT22;48626;51.678;5.806;2022-08-20T09:28:55;23.60;73.30
62573;DHT22;48626;51.678;5.806;2022-08-20T09:31:21;23.60;74.30
62573;DHT22;48626;51.678;5.806;2022-08-20T09:33:49;23.50;73.70
62573;DHT22;48626;51.678;5.806;2022-08-20T09:36:15;23.70;73.70
62573;DHT22;48626;51.678;5.806;2022-08-20T09:38:40;23.80;73.70
62573;DHT22;48626;51.678;5.806;2022-08-20T09:41:06;23.80;72.20
62573;DHT22;48626;51.678;5.806;2022-08-20T09:43:31;23.80;73.30
62573;DHT22;48626;51.678;5.806;2022-08-20T09:45:57;23.90;73.00
62573;DHT22;48626;51.678;5.806;2022-08-20T09:48:23;24.00;69.60
62573;DHT22;48626;51.678;5.806;2022-08-20T09:50:49;24.20;71.70
62573;DHT22;48626;51.678;5.806;2022-08-20T09:53:16;24.50;72.40
62573;DHT22;48626;51.678;5.806;2022-08-20T09:55:44;24.70;68.60
62573;DHT22;48626;51.678;5.806;2022-08-20T09:58:17;24.60;65.30
62573;DHT22;48626;51.678;5.806;2022-08-20T10:00:44;24.50;67.80
62573;DHT22;48626;51.678;5.806;2022-08-20T10:03:10;24.40;68.20
62573;DHT22;48626;51.678;5.806;2022-08-20T10:05:35;24.30;69.30
62573;DHT22;48626;51.678;5.806;2022-08-20T10:08:05;24.30;70.40
62573;DHT22;48626;51.678;5.806;2022-08-20T10:10:31;24.50;72.60
62573;DHT22;48626;51.678;5.806;2022-08-20T10:12:56;24.60;73.00
62573;DHT22;48626;51.678;5.806;2022-08-20T10:15:22;24.60;72.10
62573;DHT22;48626;51.678;5.806;2022-08-20T10:17:48;24.60;71.50
62573;DHT22;48626;51.678;5.806;2022-08-20T10:20:14;24.90;73.50
62573;DHT22;48626;51.678;5.806;2022-08-20T10:22:40;25.30;73.50
62573;DHT22;48626;51.678;5.806;2022-08-20T10:25:06;25.60;67.60
62573;DHT22;48626;51.678;5.806;2022-08-20T10:27:33;25.50;63.70
62573;DHT22;48626;51.678;5.806;2022-08-20T10:29:58;25.50;66.50
62573;DHT22;48626;51.678;5.806;2022-08-20T10:32:24;25.90;69.50
62573;DHT22;48626;51.678;5.806;2022-08-20T10:34:50;26.00;64.80
62573;DHT22;48626;51.678;5.806;2022-08-20T10:37:18;25.90;62.40
62573;DHT22;48626;51.678;5.806;2022-08-20T10:39:44;25.80;62.30
62573;DHT22;48626;51.678;5.806;2022-08-20T10:42:10;26.00;60.50
62573;DHT22;48626;51.678;5.806;2022-08-20T10:44:37;26.40;61.50
62573;DHT22;48626;51.678;5.806;2022-08-20T10:47:21;26.20;62.80
62573;DHT22;48626;51.678;5.806;2022-08-20T10:49:49;25.90;62.60
62573;DHT22;48626;51.678;5.806;2022-08-20T10:52:15;25.50;61.30
62573;DHT22;48626;51.678;5.806;2022-08-20T10:54:41;25.70;60.60
62573;DHT22;48626;51.678;5.806;2022-08-20T10:57:08;26.10;60.20
62573;DHT22;48626;51.678;5.806;2022-08-20T10:59:38;26.60;59.10
62573;DHT22;48626;51.678;5.806;2022-08-20T11:02:04;27.00;57.30
62573;DHT22;48626;51.678;5.806;2022-08-20T11:04:30;27.00;55.40
62573;DHT22;48626;51.678;5.806;2022-08-20T11:06:55;26.70;55.90
62573;DHT22;48626;51.678;5.806;2022-08-20T11:09:21;26.50;56.30
62573;DHT22;48626;51.678;5.806;2022-08-20T11:11:47;26.40;57.00
62573;DHT22;48626;51.678;5.806;2022-08-20T11:14:12;26.90;58.30
62573;DHT22;48626;51.678;5.806;2022-08-20T11:16:38;27.10;59.60
62573;DHT22;48626;51.678;5.806;2022-08-20T11:19:03;26.80;57.70
62573;DHT22;48626;51.678;5.806;2022-08-20T11:21:29;26.50;54.70
62573;DHT22;48626;51.678;5.806;2022-08-20T11:23:55;26.50;57.70
62573;DHT22;48626;51.678;5.806;2022-08-20T11:26:22;27.30;59.70
62573;DHT22;48626;51.678;5.806;2022-08-20T11:28:49;28.00;55.10
62573;DHT22;48626;51.678;5.806;2022-08-20T11:31:15;27.80;53.30
62573;DHT22;48626;51.678;5.806;2022-08-20T11:33:41;27.50;52.90
62573;DHT22;48626;51.678;5.806;2022-08-20T11:36:06;27.20;54.50
62573;DHT22;48626;51.678;5.806;2022-08-20T11:38:32;26.90;53.10
62573;DHT22;48626;51.678;5.806;2022-08-20T11:40:58;27.70;57.20
62573;DHT22;48626;51.678;5.806;2022-08-20T11:43:23;28.00;54.70
62573;DHT22;48626;51.678;5.806;2022-08-20T11:45:53;28.00;53.50
62573;DHT22;48626;51.678;5.806;2022-08-20T11:48:20;27.50;52.80
62573;DHT22;48626;51.678;5.806;2022-08-20T11:50:46;27.30;52.80
62573;DHT22;48626;51.678;5.806;2022-08-20T11:53:12;28.10;56.00
62573;DHT22;48626;51.678;5.806;2022-08-20T11:55:38;29.10;55.30
62573;DHT22;48626;51.678;5.806;2022-08-20T11:58:04;29.80;50.20
62573;DHT22;48626;51.678;5.806;2022-08-20T12:00:30;29.20;49.70
62573;DHT22;48626;51.678;5.806;2022-08-20T12:02:56;28.50;49.40
62573;DHT22;48626;51.678;5.806;2022-08-20T12:05:22;28.90;49.80
62573;DHT22;48626;51.678;5.806;2022-08-20T12:07:47;29.70;47.30
62573;DHT22;48626;51.678;5.806;2022-08-20T12:10:14;30.20;46.10
62573;DHT22;48626;51.678;5.806;2022-08-20T12:12:40;31.00;48.90
62573;DHT22;48626;51.678;5.806;2022-08-20T12:15:08;31.50;43.10
62573;DHT22;48626;51.678;5.806;2022-08-20T12:17:34;31.60;39.60
62573;DHT22;48626;51.678;5.806;2022-08-20T12:20:05;32.00;44.70
62573;DHT22;48626;51.678;5.806;2022-08-20T12:22:31;32.20;39.60
62573;DHT22;48626;51.678;5.806;2022-08-20T12:24:57;32.40;42.70
62573;DHT22;48626;51.678;5.806;2022-08-20T12:27:29;32.80;43.00
62573;DHT22;48626;51.678;5.806;2022-08-20T12:29:57;32.50;41.50
62573;DHT22;48626;51.678;5.806;2022-08-20T12:32:25;31.40;39.30
62573;DHT22;48626;51.678;5.806;2022-08-20T12:34:52;31.40;40.80
62573;DHT22;48626;51.678;5.806;2022-08-20T12:37:22;31.80;41.10
62573;DHT22;48626;51.678;5.806;2022-08-20T12:39:51;32.30;40.30
62573;DHT22;48626;51.678;5.806;2022-08-20T12:42:18;32.10;38.10
62573;DHT22;48626;51.678;5.806;2022-08-20T12:44:44;32.40;39.70
62573;DHT22;48626;51.678;5.806;2022-08-20T12:47:21;32.70;36.80
62573;DHT22;48626;51.678;5.806;2022-08-20T12:49:50;33.00;36.30
62573;DHT22;48626;51.678;5.806;2022-08-20T12:52:18;33.20;36.50
62573;DHT22;48626;51.678;5.806;2022-08-20T12:54:45;33.60;39.00
62573;DHT22;48626;51.678;5.806;2022-08-20T12:57:34;33.20;36.50
62573;DHT22;48626;51.678;5.806;2022-08-20T13:00:06;32.80;37.00
62573;DHT22;48626;51.678;5.806;2022-08-20T13:02:33;33.40;40.30
62573;DHT22;48626;51.678;5.806;2022-08-20T13:04:59;33.60;37.60
62573;DHT22;48626;51.678;5.806;2022-08-20T13:07:25;33.90;35.70
62573;DHT22;48626;51.678;5.806;2022-08-20T13:09:50;34.00;35.80
62573;DHT22;48626;51.678;5.806;2022-08-20T13:12:16;34.50;38.50
62573;DHT22;48626;51.678;5.806;2022-08-20T13:14:42;35.10;35.10
62573;DHT22;48626;51.678;5.806;2022-08-20T13:17:08;35.70;35.80
62573;DHT22;48626;51.678;5.806;2022-08-20T13:19:35;35.50;31.50
62573;DHT22;48626;51.678;5.806;2022-08-20T13:22:02;34.00;31.40
62573;DHT22;48626;51.678;5.806;2022-08-20T13:24:27;32.80;33.70
62573;DHT22;48626;51.678;5.806;2022-08-20T13:26:53;31.50;34.40
62573;DHT22;48626;51.678;5.806;2022-08-20T13:29:19;30.50;35.70
62573;DHT22;48626;51.678;5.806;2022-08-20T13:31:45;31.00;37.60
62573;DHT22;48626;51.678;5.806;2022-08-20T13:34:11;31.70;36.60
62573;DHT22;48626;51.678;5.806;2022-08-20T13:36:37;31.40;34.40
62573;DHT22;48626;51.678;5.806;2022-08-20T13:39:04;30.70;36.40
62573;DHT22;48626;51.678;5.806;2022-08-20T13:41:30;31.30;38.60
62573;DHT22;48626;51.678;5.806;2022-08-20T13:43:56;31.60;39.10
62573;DHT22;48626;51.678;5.806;2022-08-20T13:46:22;31.40;39.40
62573;DHT22;48626;51.678;5.806;2022-08-20T13:48:47;31.20;38.60
62573;DHT22;48626;51.678;5.806;2022-08-20T13:51:13;31.00;38.00
62573;DHT22;48626;51.678;5.806;2022-08-20T13:53:39;30.70;37.00
62573;DHT22;48626;51.678;5.806;2022-08-20T13:56:04;30.40;38.30
62573;DHT22;48626;51.678;5.806;2022-08-20T13:58:30;30.50;38.00
62573;DHT22;48626;51.678;5.806;2022-08-20T14:00:56;30.40;36.90
62573;DHT22;48626;51.678;5.806;2022-08-20T14:03:21;30.40;41.00
62573;DHT22;48626;51.678;5.806;2022-08-20T14:05:47;30.30;40.80
62573;DHT22;48626;51.678;5.806;2022-08-20T14:08:16;30.20;42.30
62573;DHT22;48626;51.678;5.806;2022-08-20T14:10:43;30.10;44.40
62573;DHT22;48626;51.678;5.806;2022-08-20T14:13:09;30.20;40.60
62573;DHT22;48626;51.678;5.806;2022-08-20T14:15:36;30.70;43.10
62573;DHT22;48626;51.678;5.806;2022-08-20T14:18:02;31.40;42.90
62573;DHT22;48626;51.678;5.806;2022-08-20T14:20:30;31.70;38.40
62573;DHT22;48626;51.678;5.806;2022-08-20T14:22:56;31.50;37.20
62573;DHT22;48626;51.678;5.806;2022-08-20T14:25:23;31.80;38.70
62573;DHT22;48626;51.678;5.806;2022-08-20T14:27:50;32.40;37.70
62573;DHT22;48626;51.678;5.806;2022-08-20T14:30:22;33.00;38.70
62573;DHT22;48626;51.678;5.806;2022-08-20T14:32:48;32.60;36.40
62573;DHT22;48626;51.678;5.806;2022-08-20T14:35:14;32.50;35.00
62573;DHT22;48626;51.678;5.806;2022-08-20T14:37:44;32.30;36.40
62573;DHT22;48626;51.678;5.806;2022-08-20T14:40:14;31.70;38.10
62573;DHT22;48626;51.678;5.806;2022-08-20T14:42:40;32.60;39.60
62573;DHT22;48626;51.678;5.806;2022-08-20T14:45:07;33.50;37.00
62573;DHT22;48626;51.678;5.806;2022-08-20T14:47:40;34.30;36.40
62573;DHT22;48626;51.678;5.806;2022-08-20T14:50:11;34.50;33.80
62573;DHT22;48626;51.678;5.806;2022-08-20T14:52:37;34.10;35.80
62573;DHT22;48626;51.678;5.806;2022-08-20T14:55:06;34.40;33.40
62573;DHT22;48626;51.678;5.806;2022-08-20T14:57:33;34.60;33.70
62573;DHT22;48626;51.678;5.806;2022-08-20T14:59:58;34.40;32.20
62573;DHT22;48626;51.678;5.806;2022-08-20T15:02:24;33.20;33.40
62573;DHT22;48626;51.678;5.806;2022-08-20T15:04:50;32.40;33.80
62573;DHT22;48626;51.678;5.806;2022-08-20T15:07:35;31.80;36.50
62573;DHT22;48626;51.678;5.806;2022-08-20T15:10:03;31.30;40.90
62573;DHT22;48626;51.678;5.806;2022-08-20T15:12:31;31.10;39.50
62573;DHT22;48626;51.678;5.806;2022-08-20T15:14:59;31.50;36.50
62573;DHT22;48626;51.678;5.806;2022-08-20T15:17:28;31.20;37.00
62573;DHT22;48626;51.678;5.806;2022-08-20T15:19:54;31.00;37.60
62573;DHT22;48626;51.678;5.806;2022-08-20T15:22:21;30.60;40.10
62573;DHT22;48626;51.678;5.806;2022-08-20T15:24:47;30.20;41.00
62573;DHT22;48626;51.678;5.806;2022-08-20T15:27:19;29.70;38.60
62573;DHT22;48626;51.678;5.806;2022-08-20T15:29:45;29.60;40.00
62573;DHT22;48626;51.678;5.806;2022-08-20T15:32:11;29.50;41.20
62573;DHT22;48626;51.678;5.806;2022-08-20T15:34:38;29.30;39.90
62573;DHT22;48626;51.678;5.806;2022-08-20T15:37:09;29.00;41.10